sensor_id;sensor_type;location;lat;lon;timestamp;P1;durP1;ratioP1;P2;durP2;ratioP2
9964;SDS011;5023;53.554;9.964;2024-02-16T00:00:42;7.38;;;5.38;;
9964;SDS011;5023;53.554;9.964;2024-02-16T00:05:48;9.80;;;5.32;;
9964;SDS011;5023;53.554;9.964;2024-02-16T00:10:51;10.48;;;7.68;;
9964;SDS011;5023;53.554;9.964;2024-02-16T00:15:53;17.92;;;12.07;;
9964;SDS011;5023;53.554;9.964;2024-02-16T00:20:56;9.90;;;7.78;;
9964;SDS011;5023;53.554;9.964;2024-02-16T00:25:58;7.20;;;5.32;;
9964;SDS011;5023;53.554;9.964;2024-02-16T00:31:01;7.30;;;5.00;;
9964;SDS011;5023;53.554;9.964;2024-02-16T00:36:07;6.15;;;5.50;;
9964;SDS011;5023;53.554;9.964;2024-02-16T00:41:16;8.93;;;6.25;;
9964;SDS011;5023;53.554;9.964;2024-02-16T00:46:19;5.68;;;5.15;;
9964;SDS011;5023;53.554;9.964;2024-02-16T00:51:24;8.45;;;6.15;;
9964;SDS011;5023;53.554;9.964;2024-02-16T00:56:26;7.78;;;6.00;;
9964;SDS011;5023;53.554;9.964;2024-02-16T01:01:28;6.82;;;5.45;;
9964;SDS011;5023;53.554;9.964;2024-02-16T01:06:31;7.00;;;6.30;;
9964;SDS011;5023;53.554;9.964;2024-02-16T01:11:33;8.18;;;6.50;;
9964;SDS011;5023;53.554;9.964;2024-02-16T01:16:35;8.70;;;7.18;;
9964;SDS011;5023;53.554;9.964;2024-02-16T01:21:39;7.97;;;6.53;;
9964;SDS011;5023;53.554;9.964;2024-02-16T01:26:41;6.57;;;5.47;;
9964;SDS011;5023;53.554;9.964;2024-02-16T01:31:43;5.55;;;4.95;;
9964;SDS011;5023;53.554;9.964;2024-02-16T01:36:46;8.52;;;6.00;;
9964;SDS011;5023;53.554;9.964;2024-02-16T01:41:48;5.70;;;5.07;;
9964;SDS011;5023;53.554;9.964;2024-02-16T01:46:50;6.82;;;4.93;;
9964;SDS011;5023;53.554;9.964;2024-02-16T01:51:53;5.20;;;4.70;;
9964;SDS011;5023;53.554;9.964;2024-02-16T01:56:55;5.93;;;4.80;;
9964;SDS011;5023;53.554;9.964;2024-02-16T02:01:57;6.13;;;5.05;;
9964;SDS011;5023;53.554;9.964;2024-02-16T02:07:01;5.72;;;4.47;;
9964;SDS011;5023;53.554;9.964;2024-02-16T02:12:12;8.55;;;4.63;;
9964;SDS011;5023;53.554;9.964;2024-02-16T02:17:14;4.68;;;4.20;;
9964;SDS011;5023;53.554;9.964;2024-02-16T02:22:18;8.68;;;6.20;;
9964;SDS011;5023;53.554;9.964;2024-02-16T02:27:20;7.30;;;5.45;;
9964;SDS011;5023;53.554;9.964;2024-02-16T02:32:22;5.95;;;5.07;;
9964;SDS011;5023;53.554;9.964;2024-02-16T02:37:26;4.70;;;4.20;;
9964;SDS011;5023;53.554;9.964;2024-02-16T02:42:27;5.20;;;4.70;;
9964;SDS011;5023;53.554;9.964;2024-02-16T02:47:29;4.78;;;4.13;;
9964;SDS011;5023;53.554;9.964;2024-02-16T02:52:33;5.68;;;4.30;;
9964;SDS011;5023;53.554;9.964;2024-02-16T02:57:35;4.55;;;4.03;;
9964;SDS011;5023;53.554;9.964;2024-02-16T03:02:37;5.38;;;4.55;;
9964;SDS011;5023;53.554;9.964;2024-02-16T03:07:41;4.55;;;4.07;;
9964;SDS011;5023;53.554;9.964;2024-02-16T03:12:43;5.85;;;4.03;;
9964;SDS011;5023;53.554;9.964;2024-02-16T03:17:44;5.95;;;4.20;;
9964;SDS011;5023;53.554;9.964;2024-02-16T03:22:48;5.78;;;3.95;;
9964;SDS011;5023;53.554;9.964;2024-02-16T03:27:50;5.45;;;4.05;;
9964;SDS011;5023;53.554;9.964;2024-02-16T03:32:53;6.47;;;4.18;;
9964;SDS011;5023;53.554;9.964;2024-02-16T03:37:56;4.10;;;3.70;;
9964;SDS011;5023;53.554;9.964;2024-02-16T03:42:58;4.65;;;4.10;;
9964;SDS011;5023;53.554;9.964;2024-02-16T03:48:00;3.92;;;3.42;;
9964;SDS011;5023;53.554;9.964;2024-02-16T03:53:03;4.35;;;3.92;;
9964;SDS011;5023;53.554;9.964;2024-02-16T03:58:05;3.65;;;3.35;;
9964;SDS011;5023;53.554;9.964;2024-02-16T04:03:07;3.70;;;3.10;;
9964;SDS011;5023;53.554;9.964;2024-02-16T04:08:11;6.93;;;6.22;;
9964;SDS011;5023;53.554;9.964;2024-02-16T04:13:13;7.32;;;4.70;;
9964;SDS011;5023;53.554;9.964;2024-02-16T04:18:15;5.43;;;3.60;;
9964;SDS011;5023;53.554;9.964;2024-02-16T04:23:20;6.05;;;4.00;;
9964;SDS011;5023;53.554;9.964;2024-02-16T04:28:22;7.63;;;4.60;;
9964;SDS011;5023;53.554;9.964;2024-02-16T04:33:24;7.85;;;4.28;;
9964;SDS011;5023;53.554;9.964;2024-02-16T04:38:30;6.80;;;4.22;;
9964;SDS011;5023;53.554;9.964;2024-02-16T04:43:32;4.40;;;3.60;;
9964;SDS011;5023;53.554;9.964;2024-02-16T04:48:35;4.50;;;3.05;;
9964;SDS011;5023;53.554;9.964;2024-02-16T04:53:38;3.97;;;3.50;;
9964;SDS011;5023;53.554;9.964;2024-02-16T04:58:40;3.97;;;3.60;;
9964;SDS011;5023;53.554;9.964;2024-02-16T05:03:42;3.60;;;3.30;;
9964;SDS011;5023;53.554;9.964;2024-02-16T05:08:45;3.78;;;3.03;;
9964;SDS011;5023;53.554;9.964;2024-02-16T05:13:47;3.85;;;3.40;;
9964;SDS011;5023;53.554;9.964;2024-02-16T05:18:49;3.47;;;2.90;;
9964;SDS011;5023;53.554;9.964;2024-02-16T05:23:52;4.00;;;3.35;;
9964;SDS011;5023;53.554;9.964;2024-02-16T05:28:55;12.93;;;11.55;;
9964;SDS011;5023;53.554;9.964;2024-02-16T05:33:57;4.20;;;3.75;;
9964;SDS011;5023;53.554;9.964;2024-02-16T05:39:01;4.30;;;3.35;;
9964;SDS011;5023;53.554;9.964;2024-02-16T05:44:20;4.60;;;3.53;;
9964;SDS011;5023;53.554;9.964;2024-02-16T05:49:22;5.13;;;3.90;;
9964;SDS011;5023;53.554;9.964;2024-02-16T05:54:26;5.05;;;3.65;;
9964;SDS011;5023;53.554;9.964;2024-02-16T05:59:28;3.33;;;3.03;;
9964;SDS011;5023;53.554;9.964;2024-02-16T06:04:29;3.75;;;3.45;;
9964;SDS011;5023;53.554;9.964;2024-02-16T06:09:33;4.05;;;3.53;;
9964;SDS011;5023;53.554;9.964;2024-02-16T06:14:35;4.00;;;3.60;;
9964;SDS011;5023;53.554;9.964;2024-02-16T06:19:37;4.60;;;3.45;;
9964;SDS011;5023;53.554;9.964;2024-02-16T06:24:41;6.85;;;4.38;;
9964;SDS011;5023;53.554;9.964;2024-02-16T06:29:44;5.45;;;3.65;;
9964;SDS011;5023;53.554;9.964;2024-02-16T06:34:46;5.10;;;3.70;;
9964;SDS011;5023;53.554;9.964;2024-02-16T06:39:49;4.00;;;3.60;;
9964;SDS011;5023;53.554;9.964;2024-02-16T06:44:51;5.53;;;3.53;;
9964;SDS011;5023;53.554;9.964;2024-02-16T06:49:53;4.82;;;4.32;;
9964;SDS011;5023;53.554;9.964;2024-02-16T06:54:56;9.27;;;6.40;;
9964;SDS011;5023;53.554;9.964;2024-02-16T06:59:58;4.05;;;3.75;;
9964;SDS011;5023;53.554;9.964;2024-02-16T07:05:03;4.10;;;3.50;;
9964;SDS011;5023;53.554;9.964;2024-02-16T07:10:07;5.75;;;3.83;;
9964;SDS011;5023;53.554;9.964;2024-02-16T07:15:13;4.82;;;3.40;;
9964;SDS011;5023;53.554;9.964;2024-02-16T07:20:15;5.45;;;4.40;;
9964;SDS011;5023;53.554;9.964;2024-02-16T07:25:19;4.97;;;4.20;;
9964;SDS011;5023;53.554;9.964;2024-02-16T07:30:21;4.05;;;3.42;;
9964;SDS011;5023;53.554;9.964;2024-02-16T07:35:23;4.20;;;3.55;;
9964;SDS011;5023;53.554;9.964;2024-02-16T07:40:27;7.72;;;4.15;;
9964;SDS011;5023;53.554;9.964;2024-02-16T07:45:29;6.68;;;5.35;;
9964;SDS011;5023;53.554;9.964;2024-02-16T07:50:31;8.10;;;3.92;;
9964;SDS011;5023;53.554;9.964;2024-02-16T07:55:34;9.20;;;4.03;;
9964;SDS011;5023;53.554;9.964;2024-02-16T08:00:36;5.88;;;4.13;;
9964;SDS011;5023;53.554;9.964;2024-02-16T08:05:38;5.75;;;3.78;;
9964;SDS011;5023;53.554;9.964;2024-02-16T08:10:41;5.35;;;3.85;;
9964;SDS011;5023;53.554;9.964;2024-02-16T08:15:43;5.00;;;3.90;;
9964;SDS011;5023;53.554;9.964;2024-02-16T08:20:45;4.55;;;3.40;;
9964;SDS011;5023;53.554;9.964;2024-02-16T08:25:49;5.50;;;3.80;;
9964;SDS011;5023;53.554;9.964;2024-02-16T08:30:51;4.90;;;3.47;;
9964;SDS011;5023;53.554;9.964;2024-02-16T08:35:53;5.65;;;3.90;;
9964;SDS011;5023;53.554;9.964;2024-02-16T08:40:56;8.57;;;4.00;;
9964;SDS011;5023;53.554;9.964;2024-02-16T08:46:00;5.22;;;4.00;;
9964;SDS011;5023;53.554;9.964;2024-02-16T08:51:01;10.13;;;4.63;;
9964;SDS011;5023;53.554;9.964;2024-02-16T08:56:08;8.77;;;3.90;;
9964;SDS011;5023;53.554;9.964;2024-02-16T09:01:10;5.22;;;4.45;;
9964;SDS011;5023;53.554;9.964;2024-02-16T09:06:12;3.70;;;3.40;;
9964;SDS011;5023;53.554;9.964;2024-02-16T09:11:15;4.60;;;3.75;;
9964;SDS011;5023;53.554;9.964;2024-02-16T09:16:18;5.03;;;4.00;;
9964;SDS011;5023;53.554;9.964;2024-02-16T09:21:20;8.25;;;3.80;;
9964;SDS011;5023;53.554;9.964;2024-02-16T09:26:25;5.03;;;4.03;;
9964;SDS011;5023;53.554;9.964;2024-02-16T09:31:30;5.40;;;3.97;;
9964;SDS011;5023;53.554;9.964;2024-02-16T09:36:32;4.90;;;3.75;;
9964;SDS011;5023;53.554;9.964;2024-02-16T09:41:37;8.57;;;3.92;;
9964;SDS011;5023;53.554;9.964;2024-02-16T09:46:43;5.32;;;3.95;;
9964;SDS011;5023;53.554;9.964;2024-02-16T09:51:45;10.27;;;4.15;;
9964;SDS011;5023;53.554;9.964;2024-02-16T09:56:52;9.25;;;5.57;;
9964;SDS011;5023;53.554;9.964;2024-02-16T10:01:59;8.30;;;4.65;;
9964;SDS011;5023;53.554;9.964;2024-02-16T10:07:01;5.65;;;3.33;;
9964;SDS011;5023;53.554;9.964;2024-02-16T10:12:06;6.43;;;3.60;;
9964;SDS011;5023;53.554;9.964;2024-02-16T10:17:08;4.65;;;3.63;;
9964;SDS011;5023;53.554;9.964;2024-02-16T10:22:11;3.95;;;3.50;;
9964;SDS011;5023;53.554;9.964;2024-02-16T10:27:15;4.70;;;3.45;;
9964;SDS011;5023;53.554;9.964;2024-02-16T10:32:17;4.75;;;3.67;;
9964;SDS011;5023;53.554;9.964;2024-02-16T10:37:20;5.55;;;4.38;;
9964;SDS011;5023;53.554;9.964;2024-02-16T10:42:24;6.65;;;3.50;;
9964;SDS011;5023;53.554;9.964;2024-02-16T10:47:28;5.68;;;4.50;;
9964;SDS011;5023;53.554;9.964;2024-02-16T10:52:30;4.68;;;3.40;;
9964;SDS011;5023;53.554;9.964;2024-02-16T10:57:36;5.65;;;3.67;;
9964;SDS011;5023;53.554;9.964;2024-02-16T11:02:52;4.38;;;3.28;;
9964;SDS011;5023;53.554;9.964;2024-02-16T11:07:59;5.72;;;3.42;;
9964;SDS011;5023;53.554;9.964;2024-02-16T11:13:03;4.22;;;2.92;;
9964;SDS011;5023;53.554;9.964;2024-02-16T11:18:05;7.60;;;3.33;;
9964;SDS011;5023;53.554;9.964;2024-02-16T11:23:08;6.18;;;5.55;;
9964;SDS011;5023;53.554;9.964;2024-02-16T11:28:12;5.07;;;3.38;;
9964;SDS011;5023;53.554;9.964;2024-02-16T11:33:15;5.07;;;3.70;;
9964;SDS011;5023;53.554;9.964;2024-02-16T11:38:17;7.60;;;4.15;;
9964;SDS011;5023;53.554;9.964;2024-02-16T11:43:21;9.13;;;3.72;;
9964;SDS011;5023;53.554;9.964;2024-02-16T11:48:25;6.60;;;3.50;;
9964;SDS011;5023;53.554;9.964;2024-02-16T11:53:28;10.45;;;3.50;;
9964;SDS011;5023;53.554;9.964;2024-02-16T11:58:31;5.80;;;3.17;;
9964;SDS011;5023;53.554;9.964;2024-02-16T12:03:33;7.30;;;4.45;;
9964;SDS011;5023;53.554;9.964;2024-02-16T12:08:35;6.03;;;4.00;;
9964;SDS011;5023;53.554;9.964;2024-02-16T12:13:39;5.72;;;3.88;;
9964;SDS011;5023;53.554;9.964;2024-02-16T12:18:40;4.50;;;3.90;;
9964;SDS011;5023;53.554;9.964;2024-02-16T12:23:43;7.40;;;4.75;;
9964;SDS011;5023;53.554;9.964;2024-02-16T12:28:47;5.18;;;4.07;;
9964;SDS011;5023;53.554;9.964;2024-02-16T12:33:49;9.95;;;8.23;;
9964;SDS011;5023;53.554;9.964;2024-02-16T12:38:51;4.63;;;3.67;;
9964;SDS011;5023;53.554;9.964;2024-02-16T12:43:54;6.38;;;4.13;;
9964;SDS011;5023;53.554;9.964;2024-02-16T12:48:56;5.90;;;3.83;;
9964;SDS011;5023;53.554;9.964;2024-02-16T12:53:58;4.35;;;3.92;;
9964;SDS011;5023;53.554;9.964;2024-02-16T12:59:05;6.35;;;4.00;;
9964;SDS011;5023;53.554;9.964;2024-02-16T13:04:07;5.70;;;5.10;;
9964;SDS011;5023;53.554;9.964;2024-02-16T13:09:09;6.25;;;4.50;;
9964;SDS011;5023;53.554;9.964;2024-02-16T13:14:12;5.38;;;4.80;;
9964;SDS011;5023;53.554;9.964;2024-02-16T13:19:14;7.40;;;4.63;;
9964;SDS011;5023;53.554;9.964;2024-02-16T13:24:18;8.05;;;4.40;;
9964;SDS011;5023;53.554;9.964;2024-02-16T13:29:21;5.82;;;4.53;;
9964;SDS011;5023;53.554;9.964;2024-02-16T13:34:23;4.57;;;4.13;;
9964;SDS011;5023;53.554;9.964;2024-02-16T13:39:27;4.93;;;4.38;;
9964;SDS011;5023;53.554;9.964;2024-02-16T13:44:30;7.22;;;4.55;;
9964;SDS011;5023;53.554;9.964;2024-02-16T13:49:32;6.75;;;5.00;;
9964;SDS011;5023;53.554;9.964;2024-02-16T13:54:34;10.93;;;4.57;;
9964;SDS011;5023;53.554;9.964;2024-02-16T13:59:38;8.05;;;5.35;;
9964;SDS011;5023;53.554;9.964;2024-02-16T14:04:41;6.53;;;5.00;;
9964;SDS011;5023;53.554;9.964;2024-02-16T14:09:43;5.63;;;5.00;;
9964;SDS011;5023;53.554;9.964;2024-02-16T14:14:47;6.32;;;4.60;;
9964;SDS011;5023;53.554;9.964;2024-02-16T14:19:49;9.27;;;5.50;;
9964;SDS011;5023;53.554;9.964;2024-02-16T14:24:51;5.28;;;4.75;;
9964;SDS011;5023;53.554;9.964;2024-02-16T14:29:58;5.70;;;4.53;;
9964;SDS011;5023;53.554;9.964;2024-02-16T14:35:00;7.10;;;5.20;;
9964;SDS011;5023;53.554;9.964;2024-02-16T14:40:03;7.43;;;5.75;;
9964;SDS011;5023;53.554;9.964;2024-02-16T14:45:11;7.63;;;6.38;;
9964;SDS011;5023;53.554;9.964;2024-02-16T14:50:21;9.43;;;7.38;;
9964;SDS011;5023;53.554;9.964;2024-02-16T14:55:24;9.77;;;6.70;;
9964;SDS011;5023;53.554;9.964;2024-02-16T15:00:29;7.13;;;6.18;;
9964;SDS011;5023;53.554;9.964;2024-02-16T15:05:34;8.90;;;6.90;;
9964;SDS011;5023;53.554;9.964;2024-02-16T15:10:39;8.65;;;7.32;;
9964;SDS011;5023;53.554;9.964;2024-02-16T15:15:51;9.60;;;8.07;;
9964;SDS011;5023;53.554;9.964;2024-02-16T15:20:54;10.25;;;9.13;;
9964;SDS011;5023;53.554;9.964;2024-02-16T15:25:55;8.57;;;7.57;;
9964;SDS011;5023;53.554;9.964;2024-02-16T15:31:00;9.13;;;8.13;;
9964;SDS011;5023;53.554;9.964;2024-02-16T15:36:02;11.13;;;9.20;;
9964;SDS011;5023;53.554;9.964;2024-02-16T15:41:04;11.98;;;9.95;;
9964;SDS011;5023;53.554;9.964;2024-02-16T15:46:09;8.70;;;7.80;;
9964;SDS011;5023;53.554;9.964;2024-02-16T15:51:11;11.77;;;9.02;;
9964;SDS011;5023;53.554;9.964;2024-02-16T15:56:13;8.75;;;8.02;;
9964;SDS011;5023;53.554;9.964;2024-02-16T16:01:16;11.50;;;10.30;;
9964;SDS011;5023;53.554;9.964;2024-02-16T16:06:18;8.40;;;7.40;;
9964;SDS011;5023;53.554;9.964;2024-02-16T16:11:21;8.82;;;7.93;;
9964;SDS011;5023;53.554;9.964;2024-02-16T16:16:25;6.78;;;6.18;;
9964;SDS011;5023;53.554;9.964;2024-02-16T16:21:27;6.43;;;5.82;;
9964;SDS011;5023;53.554;9.964;2024-02-16T16:26:29;7.45;;;6.80;;
9964;SDS011;5023;53.554;9.964;2024-02-16T16:31:32;6.75;;;6.15;;
9964;SDS011;5023;53.554;9.964;2024-02-16T16:36:34;6.47;;;5.88;;
9964;SDS011;5023;53.554;9.964;2024-02-16T16:41:36;6.90;;;6.30;;
9964;SDS011;5023;53.554;9.964;2024-02-16T16:46:39;8.20;;;7.53;;
9964;SDS011;5023;53.554;9.964;2024-02-16T16:51:41;8.50;;;7.80;;
9964;SDS011;5023;53.554;9.964;2024-02-16T16:56:43;9.98;;;9.07;;
9964;SDS011;5023;53.554;9.964;2024-02-16T17:01:47;9.93;;;9.02;;
9964;SDS011;5023;53.554;9.964;2024-02-16T17:06:52;11.98;;;10.98;;
9964;SDS011;5023;53.554;9.964;2024-02-16T17:11:54;9.43;;;8.63;;
9964;SDS011;5023;53.554;9.964;2024-02-16T17:16:59;6.70;;;6.10;;
9964;SDS011;5023;53.554;9.964;2024-02-16T17:22:02;5.38;;;4.88;;
9964;SDS011;5023;53.554;9.964;2024-02-16T17:27:05;3.67;;;3.40;;
9964;SDS011;5023;53.554;9.964;2024-02-16T17:32:08;4.85;;;4.00;;
9964;SDS011;5023;53.554;9.964;2024-02-16T17:37:14;4.70;;;4.40;;
9964;SDS011;5023;53.554;9.964;2024-02-16T17:42:18;4.30;;;3.90;;
9964;SDS011;5023;53.554;9.964;2024-02-16T17:47:22;3.83;;;3.40;;
9964;SDS011;5023;53.554;9.964;2024-02-16T17:52:24;3.25;;;3.05;;
9964;SDS011;5023;53.554;9.964;2024-02-16T17:57:47;4.47;;;4.18;;
9964;SDS011;5023;53.554;9.964;2024-02-16T18:02:51;3.38;;;3.15;;
9964;SDS011;5023;53.554;9.964;2024-02-16T18:07:53;5.75;;;5.15;;
9964;SDS011;5023;53.554;9.964;2024-02-16T18:12:55;3.20;;;3.00;;
9964;SDS011;5023;53.554;9.964;2024-02-16T18:17:59;2.92;;;2.72;;
9964;SDS011;5023;53.554;9.964;2024-02-16T18:23:01;4.93;;;4.53;;
9964;SDS011;5023;53.554;9.964;2024-02-16T18:28:03;3.90;;;3.60;;
9964;SDS011;5023;53.554;9.964;2024-02-16T18:33:08;4.18;;;3.88;;
9964;SDS011;5023;53.554;9.964;2024-02-16T18:38:10;7.43;;;6.65;;
9964;SDS011;5023;53.554;9.964;2024-02-16T18:43:12;4.90;;;4.50;;
9964;SDS011;5023;53.554;9.964;2024-02-16T18:48:16;4.90;;;4.40;;
9964;SDS011;5023;53.554;9.964;2024-02-16T18:53:21;4.00;;;3.70;;
9964;SDS011;5023;53.554;9.964;2024-02-16T18:58:24;5.50;;;5.10;;
9964;SDS011;5023;53.554;9.964;2024-02-16T19:03:28;5.20;;;4.80;;
9964;SDS011;5023;53.554;9.964;2024-02-16T19:08:31;4.10;;;3.80;;
9964;SDS011;5023;53.554;9.964;2024-02-16T19:13:34;6.00;;;5.50;;
9964;SDS011;5023;53.554;9.964;2024-02-16T19:18:39;6.70;;;6.05;;
9964;SDS011;5023;53.554;9.964;2024-02-16T19:23:41;6.00;;;5.50;;
9964;SDS011;5023;53.554;9.964;2024-02-16T19:28:43;11.07;;;10.02;;
9964;SDS011;5023;53.554;9.964;2024-02-16T19:33:46;6.90;;;6.25;;
9964;SDS011;5023;53.554;9.964;2024-02-16T19:38:48;6.65;;;6.15;;
9964;SDS011;5023;53.554;9.964;2024-02-16T19:43:50;6.65;;;6.05;;
9964;SDS011;5023;53.554;9.964;2024-02-16T19:48:54;9.60;;;8.70;;
9964;SDS011;5023;53.554;9.964;2024-02-16T19:53:57;8.75;;;7.90;;
9964;SDS011;5023;53.554;9.964;2024-02-16T19:58:59;7.93;;;7.13;;
9964;SDS011;5023;53.554;9.964;2024-02-16T20:04:02;8.82;;;7.93;;
9964;SDS011;5023;53.554;9.964;2024-02-16T20:09:06;17.45;;;15.75;;
9964;SDS011;5023;53.554;9.964;2024-02-16T20:14:08;11.00;;;9.90;;
9964;SDS011;5023;53.554;9.964;2024-02-16T20:19:12;8.68;;;7.88;;
9964;SDS011;5023;53.554;9.964;2024-02-16T20:24:14;12.80;;;11.48;;
9964;SDS011;5023;53.554;9.964;2024-02-16T20:29:19;9.48;;;8.65;;
9964;SDS011;5023;53.554;9.964;2024-02-16T20:34:24;8.50;;;7.80;;
9964;SDS011;5023;53.554;9.964;2024-02-16T20:39:26;9.98;;;9.07;;
9964;SDS011;5023;53.554;9.964;2024-02-16T20:44:29;13.38;;;12.02;;
9964;SDS011;5023;53.554;9.964;2024-02-16T20:49:36;12.25;;;10.98;;
9964;SDS011;5023;53.554;9.964;2024-02-16T20:54:38;14.10;;;12.75;;
9964;SDS011;5023;53.554;9.964;2024-02-16T20:59:40;14.85;;;13.25;;
9964;SDS011;5023;53.554;9.964;2024-02-16T21:04:44;13.63;;;12.13;;
9964;SDS011;5023;53.554;9.964;2024-02-16T21:09:46;13.07;;;11.75;;
9964;SDS011;5023;53.554;9.964;2024-02-16T21:14:48;11.52;;;10.43;;
9964;SDS011;5023;53.554;9.964;2024-02-16T21:19:54;11.77;;;10.38;;
9964;SDS011;5023;53.554;9.964;2024-02-16T21:24:56;14.20;;;12.77;;
9964;SDS011;5023;53.554;9.964;2024-02-16T21:29:58;15.13;;;13.52;;
9964;SDS011;5023;53.554;9.964;2024-02-16T21:35:03;12.30;;;11.10;;
9964;SDS011;5023;53.554;9.964;2024-02-16T21:40:06;12.02;;;10.93;;
9964;SDS011;5023;53.554;9.964;2024-02-16T21:45:10;13.15;;;11.82;;
9964;SDS011;5023;53.554;9.964;2024-02-16T21:50:14;11.98;;;10.80;;
9964;SDS011;5023;53.554;9.964;2024-02-16T21:55:17;15.63;;;14.00;;
9964;SDS011;5023;53.554;9.964;2024-02-16T22:00:19;12.85;;;11.52;;
9964;SDS011;5023;53.554;9.964;2024-02-16T22:05:23;12.75;;;11.43;;
9964;SDS011;5023;53.554;9.964;2024-02-16T22:10:25;11.75;;;10.65;;
9964;SDS011;5023;53.554;9.964;2024-02-16T22:15:27;15.93;;;14.32;;
9964;SDS011;5023;53.554;9.964;2024-02-16T22:20:32;16.30;;;14.80;;
9964;SDS011;5023;53.554;9.964;2024-02-16T22:25:34;14.13;;;12.77;;
9964;SDS011;5023;53.554;9.964;2024-02-16T22:30:37;12.80;;;11.50;;
9964;SDS011;5023;53.554;9.964;2024-02-16T22:35:40;14.38;;;12.98;;
9964;SDS011;5023;53.554;9.964;2024-02-16T22:40:42;11.18;;;10.07;;
9964;SDS011;5023;53.554;9.964;2024-02-16T22:45:44;12.15;;;10.80;;
9964;SDS011;5023;53.554;9.964;2024-02-16T22:50:48;10.20;;;9.15;;
9964;SDS011;5023;53.554;9.964;2024-02-16T22:55:50;12.45;;;11.25;;
9964;SDS011;5023;53.554;9.964;2024-02-16T23:00:53;10.25;;;9.25;;
9964;SDS011;5023;53.554;9.964;2024-02-16T23:05:57;11.40;;;10.18;;
9964;SDS011;5023;53.554;9.964;2024-02-16T23:11:02;10.90;;;9.80;;
9964;SDS011;5023;53.554;9.964;2024-02-16T23:16:07;11.68;;;10.48;;
9964;SDS011;5023;53.554;9.964;2024-02-16T23:21:11;10.45;;;9.30;;
9964;SDS011;5023;53.554;9.964;2024-02-16T23:26:12;15.85;;;12.93;;
9964;SDS011;5023;53.554;9.964;2024-02-16T23:31:14;13.98;;;12.48;;
9964;SDS011;5023;53.554;9.964;2024-02-16T23:36:19;13.32;;;11.95;;
9964;SDS011;5023;53.554;9.964;2024-02-16T23:41:22;12.80;;;11.40;;
9964;SDS011;5023;53.554;9.964;2024-02-16T23:46:24;12.10;;;10.85;;
9964;SDS011;5023;53.554;9.964;2024-02-16T23:51:27;15.65;;;13.65;;
9964;SDS011;5023;53.554;9.964;2024-02-16T23:56:29;15.48;;;12.63;;
